Time;durP1;ratioP1;P1;durP2;ratioP2;P2;SDS_P1;SDS_P2;PMS_P1;PMS_P2;Temp;Humidity;BMP_temperature;BMP_pressure;BME280_temperature;BME280_humidity;BME280_pressure;Samples;Min_cycle;Max_cycle;Signal;HPM_P1;HPM_P2
2021/06/05 00:02:27;;;;;;;10.43;9.40;;;20.70;82.80;;;;;;5074089;28;20028;-80
2021/06/05 00:04:55;;;;;;;9.95;8.95;;;20.70;82.80;;;;;;5075875;28;20039;-81
2021/06/05 00:07:21;;;;;;;11.07;9.98;;;20.70;82.80;;;;;;5074219;28;20090;-80
2021/06/05 00:09:47;;;;;;;11.68;10.48;;;20.70;82.80;;;;;;5074558;28;20511;-80
2021/06/05 00:12:16;;;;;;;10.77;9.68;;;20.70;82.90;;;;;;5073375;28;20024;-80
2021/06/05 00:14:42;;;;;;;10.35;9.27;;;20.70;83.00;;;;;;5073993;28;20032;-80
2021/06/05 00:17:07;;;;;;;12.80;10.95;;;20.80;83.00;;;;;;5074001;28;20029;-80
2021/06/05 00:19:33;;;;;;;10.68;9.60;;;20.80;83.00;;;;;;5074126;28;20021;-81
2021/06/05 00:21:59;;;;;;;10.52;9.52;;;20.80;83.10;;;;;;5075527;28;20021;-83
2021/06/05 00:24:25;;;;;;;10.60;9.50;;;20.80;83.20;;;;;;5074248;28;20400;-84
2021/06/05 00:26:51;;;;;;;10.95;9.85;;;20.80;83.10;;;;;;5074063;28;20404;-81
2021/06/05 00:29:17;;;;;;;11.77;10.68;;;20.80;83.00;;;;;;5075103;28;20028;-83
2021/06/05 00:31:43;;;;;;;10.75;9.75;;;20.80;83.10;;;;;;5073957;28;20027;-83
2021/06/05 00:34:09;;;;;;;11.00;9.90;;;20.80;83.20;;;;;;5073647;28;20395;-84
2021/06/05 00:36:36;;;;;;;10.65;9.55;;;20.80;83.30;;;;;;5073717;28;20052;-82
2021/06/05 00:39:02;;;;;;;12.60;11.30;;;20.70;83.20;;;;;;5074893;28;20028;-83
2021/06/05 00:41:28;;;;;;;12.10;10.90;;;20.70;83.20;;;;;;5073491;28;20020;-81
2021/06/05 00:43:58;;;;;;;10.65;9.55;;;20.70;83.40;;;;;;5073583;28;20484;-81
2021/06/05 00:46:26;;;;;;;11.38;9.60;;;20.70;83.60;;;;;;5073765;28;20025;-79
2021/06/05 00:48:52;;;;;;;10.95;9.85;;;20.70;83.60;;;;;;5070953;28;20511;-80
2021/06/05 00:51:22;;;;;;;12.65;10.63;;;20.60;83.60;;;;;;5073506;28;20035;-81
2021/06/05 00:53:48;;;;;;;17.45;11.82;;;20.50;84.00;;;;;;5072714;28;20117;-82
2021/06/05 00:56:16;;;;;;;14.48;13.07;;;20.40;84.10;;;;;;5073142;28;20028;-81
2021/06/05 00:58:42;;;;;;;12.23;11.02;;;20.30;84.50;;;;;;5073170;28;20028;-81
2021/06/05 01:01:15;;;;;;;14.18;12.80;;;20.20;84.70;;;;;;5073054;28;20234;-80
2021/06/05 01:03:41;;;;;;;13.35;11.98;;;20.10;84.90;;;;;;5072998;28;20056;-81
2021/06/05 01:06:16;;;;;;;15.07;13.57;;;20.10;85.50;;;;;;5073145;28;20032;-81
2021/06/05 01:08:59;;;;;;;14.85;13.35;;;20.00;85.10;;;;;;5078155;28;20038;-80
2021/06/05 01:11:36;;;;;;;14.98;13.50;;;19.90;85.40;;;;;;5089069;28;20044;-80
2021/06/05 01:14:17;;;;;;;15.02;13.52;;;19.80;85.40;;;;;;5082686;28;20096;-80
2021/06/05 01:16:46;;;;;;;14.60;13.20;;;19.70;85.70;;;;;;5081506;28;20078;-81
2021/06/05 01:19:27;;;;;;;14.85;13.35;;;19.60;85.70;;;;;;5086968;28;20028;-82
2021/06/05 01:22:13;;;;;;;15.77;14.23;;;19.60;85.90;;;;;;5086402;28;20034;-82
2021/06/05 01:25:24;;;;;;;15.43;14.02;;;19.50;86.00;;;;;;5089012;28;20043;-82
2021/06/05 01:27:56;;;;;;;13.65;12.25;;;19.50;86.10;;;;;;5088478;28;20036;-82
2021/06/05 01:30:30;;;;;;;17.05;15.25;;;19.50;86.10;;;;;;5088599;28;20029;-83
2021/06/05 01:32:58;;;;;;;15.38;13.98;;;19.40;86.20;;;;;;5089964;28;20100;-83
2021/06/05 01:35:26;;;;;;;14.98;13.48;;;19.40;86.30;;;;;;5088348;28;20510;-82
2021/06/05 01:37:54;;;;;;;15.98;14.48;;;19.40;87.00;;;;;;5089679;28;20379;-82
2021/06/05 01:40:23;;;;;;;20.77;18.67;;;19.30;86.40;;;;;;5082543;28;20021;-82
2021/06/05 01:42:51;;;;;;;18.13;16.27;;;19.30;86.60;;;;;;5086224;28;20016;-83
2021/06/05 01:45:23;;;;;;;17.33;15.63;;;19.20;86.60;;;;;;5088051;28;20044;-83
2021/06/05 01:47:51;;;;;;;18.20;16.27;;;19.20;86.70;;;;;;5087725;28;20059;-84
2021/06/05 01:50:21;;;;;;;16.92;15.25;;;19.30;86.80;;;;;;5087100;28;20032;-83
2021/06/05 01:52:48;;;;;;;16.05;14.55;;;19.30;86.70;;;;;;5086378;28;20024;-84
2021/06/05 01:55:22;;;;;;;17.42;15.50;;;19.40;86.60;;;;;;5069940;28;20033;-83
2021/06/05 01:57:58;;;;;;;21.60;19.35;;;19.40;86.60;;;;;;5068993;28;20024;-82
2021/06/05 02:00:34;;;;;;;21.33;19.10;;;19.50;86.50;;;;;;5069238;28;20028;-81
2021/06/05 02:03:00;;;;;;;19.63;17.60;;;19.40;86.40;;;;;;5069862;28;20056;-82
2021/06/05 02:05:28;;;;;;;23.25;20.83;;;19.40;86.40;;;;;;5068885;28;20503;-82
2021/06/05 02:07:55;;;;;;;19.40;17.40;;;19.40;86.30;;;;;;5067468;28;20031;-82
2021/06/05 02:10:23;;;;;;;20.35;18.30;;;19.30;86.30;;;;;;5063228;28;20190;-81
2021/06/05 02:12:50;;;;;;;26.27;23.55;;;19.30;86.30;;;;;;5058514;28;20145;-82
2021/06/05 02:15:23;;;;;;;24.02;21.20;;;19.20;86.10;;;;;;5075185;28;20032;-82
2021/06/05 02:17:51;;;;;;;21.23;19.00;;;19.20;86.30;;;;;;5063834;28;20028;-81
2021/06/05 02:20:22;;;;;;;23.35;20.35;;;19.10;86.30;;;;;;5068105;28;20025;-82
2021/06/05 02:22:49;;;;;;;25.02;21.40;;;19.10;86.40;;;;;;5066022;28;20056;-83
2021/06/05 02:25:17;;;;;;;25.08;21.90;;;19.10;86.30;;;;;;5067521;28;20043;-82
2021/06/05 02:27:43;;;;;;;25.58;21.13;;;19.10;86.40;;;;;;5065677;28;20392;-82
2021/06/05 02:30:14;;;;;;;25.02;21.80;;;19.00;86.40;;;;;;5060563;28;20050;-82
2021/06/05 02:32:40;;;;;;;27.45;22.48;;;19.10;86.40;;;;;;5056704;28;20021;-82
2021/06/05 02:35:11;;;;;;;25.00;21.20;;;19.00;86.10;;;;;;5057168;28;20029;-82
2021/06/05 02:37:37;;;;;;;31.33;23.92;;;19.00;86.00;;;;;;5059272;28;20032;-82
2021/06/05 02:40:11;;;;;;;26.80;23.48;;;18.90;86.10;;;;;;5059263;28;20480;-81
2021/06/05 02:42:39;;;;;;;27.95;22.90;;;18.90;86.30;;;;;;5059026;28;20085;-82
2021/06/05 02:45:14;;;;;;;30.55;24.13;;;18.90;86.20;;;;;;5059280;28;20165;-81
2021/06/05 02:47:53;;;;;;;29.63;23.67;;;18.90;86.30;;;;;;5059016;28;20081;-81
2021/06/05 02:50:22;;;;;;;27.88;21.88;;;18.90;86.50;;;;;;5059269;28;20434;-82
2021/06/05 02:52:47;;;;;;;26.48;22.67;;;18.90;86.40;;;;;;5058821;28;20029;-81
2021/06/05 02:55:21;;;;;;;32.50;25.63;;;18.90;86.10;;;;;;5058838;28;20399;-81
2021/06/05 02:57:47;;;;;;;29.67;24.20;;;18.80;86.00;;;;;;5059024;28;20115;-81
2021/06/05 03:00:18;;;;;;;31.27;24.25;;;18.80;86.00;;;;;;5058870;28;20044;-81
2021/06/05 03:02:43;;;;;;;28.20;23.13;;;18.70;86.10;;;;;;5058669;28;20028;-82
2021/06/05 03:05:10;;;;;;;32.63;25.63;;;18.70;86.00;;;;;;5077040;28;20032;-81
2021/06/05 03:07:35;;;;;;;33.33;26.20;;;18.60;86.00;;;;;;5076618;28;20395;-81
2021/06/05 03:10:03;;;;;;;30.52;23.30;;;18.60;86.10;;;;;;5058608;28;20112;-81
2021/06/05 03:12:30;;;;;;;33.20;24.98;;;18.60;86.10;;;;;;5058834;28;20021;-81
2021/06/05 03:14:56;;;;;;;31.65;23.67;;;18.50;86.00;;;;;;5058417;28;20035;-81
2021/06/05 03:17:21;;;;;;;34.22;25.25;;;18.50;85.90;;;;;;5058361;28;20484;-80
2021/06/05 03:19:47;;;;;;;39.58;27.70;;;18.40;85.90;;;;;;5058563;28;20107;-81
2021/06/05 03:22:13;;;;;;;35.75;24.30;;;18.40;86.00;;;;;;5058409;28;20028;-80
2021/06/05 03:24:39;;;;;;;36.40;26.48;;;18.30;86.00;;;;;;5058334;28;20032;-81
2021/06/05 03:27:05;;;;;;;37.92;27.70;;;18.20;86.00;;;;;;5076198;28;20511;-81
2021/06/05 03:29:31;;;;;;;38.80;27.77;;;18.10;86.00;;;;;;5058035;28;20036;-82
2021/06/05 03:31:57;;;;;;;34.45;24.38;;;18.10;86.10;;;;;;5058550;28;20488;-81
2021/06/05 03:34:23;;;;;;;38.40;26.42;;;18.00;86.10;;;;;;5058301;28;20502;-81
2021/06/05 03:36:50;;;;;;;38.78;26.35;;;18.00;86.20;;;;;;5055412;28;20032;-81
2021/06/05 03:39:16;;;;;;;36.97;26.02;;;17.90;86.30;;;;;;5058100;28;20024;-81
2021/06/05 03:41:44;;;;;;;36.80;26.38;;;17.90;86.40;;;;;;5076211;28;20480;-81
2021/06/05 03:44:10;;;;;;;35.15;25.60;;;17.90;86.40;;;;;;5076045;28;20104;-81
2021/06/05 03:46:37;;;;;;;41.00;28.00;;;17.90;86.50;;;;;;5074692;28;20020;-81
2021/06/05 03:49:03;;;;;;;34.83;26.17;;;17.90;86.50;;;;;;5057919;28;20024;-81
2021/06/05 03:51:29;;;;;;;37.50;24.98;;;17.80;86.50;;;;;;5057783;28;20028;-81
2021/06/05 03:53:55;;;;;;;36.58;25.35;;;17.80;86.50;;;;;;5075720;28;20507;-82
2021/06/05 03:56:21;;;;;;;34.90;24.05;;;17.90;86.70;;;;;;5057678;28;20132;-80
2021/06/05 03:58:47;;;;;;;40.72;25.92;;;17.90;86.70;;;;;;5075633;28;20491;-79
2021/06/05 04:01:16;;;;;;;37.25;25.45;;;18.00;86.70;;;;;;5057633;28;20238;-79
2021/06/05 04:03:43;;;;;;;37.20;25.92;;;18.00;86.60;;;;;;5057555;28;20027;-80
2021/06/05 04:06:09;;;;;;;39.83;26.95;;;18.00;86.50;;;;;;5057756;28;20024;-79
2021/06/05 04:08:35;;;;;;;40.13;25.63;;;18.00;86.50;;;;;;5075578;28;20025;-80
2021/06/05 04:11:01;;;;;;;42.80;26.88;;;18.00;86.60;;;;;;5057165;28;20377;-80
2021/06/05 04:13:27;;;;;;;43.28;28.50;;;18.00;86.50;;;;;;5072459;28;20041;-80
2021/06/05 04:15:52;;;;;;;40.38;26.75;;;18.00;86.60;;;;;;5057265;28;20055;-80
2021/06/05 04:18:26;;;;;;;35.53;23.10;;;18.00;86.70;;;;;;5057164;28;20024;-80
2021/06/05 04:20:52;;;;;;;37.22;23.83;;;18.00;86.60;;;;;;5057440;28;20052;-80
2021/06/05 04:23:18;;;;;;;40.90;26.60;;;18.00;86.50;;;;;;5057442;28;20021;-80
2021/06/05 04:25:44;;;;;;;41.35;25.55;;;18.10;86.50;;;;;;5057392;28;20028;-80
2021/06/05 04:28:13;;;;;;;42.50;26.20;;;18.10;86.50;;;;;;5075423;28;20089;-80
2021/06/05 04:30:40;;;;;;;36.67;22.98;;;18.10;86.50;;;;;;5057190;28;20507;-81
2021/06/05 04:33:07;;;;;;;44.15;26.67;;;18.00;86.50;;;;;;5054280;28;20119;-80
2021/06/05 04:35:33;;;;;;;37.72;24.35;;;18.10;86.50;;;;;;5057140;28;20568;-80
2021/06/05 04:38:00;;;;;;;36.63;23.13;;;18.10;86.50;;;;;;5057246;28;20023;-80
2021/06/05 04:40:26;;;;;;;35.42;22.15;;;18.10;86.50;;;;;;5056806;28;20024;-81
2021/06/05 04:42:52;;;;;;;33.70;22.50;;;18.10;86.50;;;;;;5057020;28;20484;-80
2021/06/05 04:45:19;;;;;;;37.25;23.67;;;18.20;86.60;;;;;;5056677;28;20029;-80
2021/06/05 04:47:45;;;;;;;36.03;22.75;;;18.30;87.10;;;;;;5053884;28;20090;-80
2021/06/05 04:50:14;;;;;;;35.58;24.00;;;18.30;86.30;;;;;;5074643;28;20064;-81
2021/06/05 04:52:40;;;;;;;32.25;21.08;;;18.30;86.20;;;;;;5056597;28;20364;-80
2021/06/05 04:55:07;;;;;;;34.22;22.35;;;18.30;86.10;;;;;;5073190;28;20039;-80
2021/06/05 04:57:34;;;;;;;40.20;24.85;;;18.40;86.10;;;;;;5073000;28;20107;-81
2021/06/05 04:59:59;;;;;;;30.83;20.27;;;18.40;86.00;;;;;;5073146;28;20135;-81
2021/06/05 05:02:25;;;;;;;31.55;20.42;;;18.40;86.00;;;;;;5073149;28;20055;-81
2021/06/05 05:04:51;;;;;;;33.40;22.42;;;18.40;85.90;;;;;;5072960;28;20027;-81
2021/06/05 05:07:17;;;;;;;33.25;22.00;;;18.40;85.80;;;;;;5072986;28;20157;-81
2021/06/05 05:09:44;;;;;;;31.17;21.38;;;18.40;85.90;;;;;;5073010;28;20021;-81
2021/06/05 05:12:10;;;;;;;26.60;18.98;;;18.50;85.90;;;;;;5074799;28;20029;-82
2021/06/05 05:14:37;;;;;;;34.67;22.02;;;18.50;85.80;;;;;;5072869;28;20020;-81
2021/06/05 05:17:03;;;;;;;33.58;22.90;;;18.50;85.70;;;;;;5072888;28;20044;-81
2021/06/05 05:19:29;;;;;;;32.78;22.05;;;18.50;85.70;;;;;;5073825;28;20488;-81
2021/06/05 05:21:56;;;;;;;32.35;22.02;;;18.40;85.70;;;;;;5072508;28;20028;-81
2021/06/05 05:24:25;;;;;;;29.27;19.50;;;18.40;85.80;;;;;;5072817;28;20078;-81
2021/06/05 05:26:51;;;;;;;27.75;18.73;;;18.40;86.00;;;;;;5072668;28;20085;-81
2021/06/05 05:29:17;;;;;;;27.70;19.15;;;18.50;86.00;;;;;;5072875;28;20024;-80
2021/06/05 05:31:43;;;;;;;27.67;18.30;;;18.50;85.80;;;;;;5072655;28;20062;-81
2021/06/05 05:34:09;;;;;;;28.17;18.80;;;18.50;85.70;;;;;;5072534;28;20020;-81
2021/06/05 05:36:37;;;;;;;27.02;18.85;;;18.50;85.60;;;;;;5072636;28;20182;-81
2021/06/05 05:39:07;;;;;;;30.65;19.70;;;18.50;85.60;;;;;;5072551;28;20082;-81
2021/06/05 05:41:33;;;;;;;28.52;19.75;;;18.60;85.60;;;;;;5072487;28;20024;-81
2021/06/05 05:43:59;;;;;;;26.77;18.27;;;18.60;85.60;;;;;;5072472;28;20017;-81
2021/06/05 05:46:25;;;;;;;27.90;19.20;;;18.50;85.50;;;;;;5072649;28;20391;-80
2021/06/05 05:48:52;;;;;;;27.05;17.17;;;18.60;85.60;;;;;;5072326;28;20031;-80
2021/06/05 05:51:19;;;;;;;27.08;18.35;;;18.60;85.50;;;;;;5072260;28;20086;-80
2021/06/05 05:53:45;;;;;;;28.75;18.92;;;18.60;85.50;;;;;;5072083;28;20040;-80
2021/06/05 05:56:13;;;;;;;28.23;18.77;;;18.70;85.50;;;;;;5072269;28;20123;-81
2021/06/05 06:02:01;;;;;;;28.23;18.92;;;18.80;85.40;;;;;;5074131;28;20525;-80
2021/06/05 06:04:26;;;;;;;27.77;18.92;;;18.80;85.10;;;;;;5072126;28;20032;-80
2021/06/05 06:06:52;;;;;;;29.35;19.33;;;18.90;85.10;;;;;;5072251;28;20060;-80
2021/06/05 06:09:18;;;;;;;28.50;18.98;;;18.90;85.00;;;;;;5071354;28;20036;-81
2021/06/05 06:15:15;;;;;;;27.25;18.65;;;18.90;84.90;;;;;;5073579;28;20434;-80
2021/06/05 06:21:06;;;;;;;22.05;15.45;;;19.00;84.90;;;;;;5073919;28;20035;-80
2021/06/05 06:23:32;;;;;;;25.35;17.35;;;19.00;84.60;;;;;;5072408;28;20480;-79
2021/06/05 06:26:00;;;;;;;21.65;15.00;;;19.10;84.50;;;;;;5072749;28;20116;-80
2021/06/05 06:28:30;;;;;;;20.98;14.20;;;19.20;84.50;;;;;;5072159;28;20031;-80
2021/06/05 06:31:00;;;;;;;21.20;14.63;;;19.20;84.30;;;;;;5072057;28;20024;-79
2021/06/05 06:33:26;;;;;;;20.33;13.73;;;19.30;84.10;;;;;;5072390;28;20063;-79
2021/06/05 06:35:53;;;;;;;23.50;15.43;;;19.30;84.10;;;;;;5071788;28;20451;-80
2021/06/05 06:38:32;;;;;;;19.50;13.52;;;19.40;84.00;;;;;;5071871;28;20025;-80
2021/06/05 06:41:00;;;;;;;19.67;13.02;;;19.50;84.00;;;;;;5072581;28;20025;-80
2021/06/05 06:43:28;;;;;;;16.42;12.57;;;19.50;83.80;;;;;;5073328;28;20029;-79
2021/06/05 06:45:54;;;;;;;16.80;11.57;;;19.60;83.80;;;;;;5072196;28;20530;-80
2021/06/05 06:48:21;;;;;;;16.77;11.18;;;19.60;83.60;;;;;;5073113;28;20029;-80
2021/06/05 06:50:49;;;;;;;17.42;12.30;;;19.60;83.60;;;;;;5073561;28;20104;-80
2021/06/05 06:53:16;;;;;;;15.00;10.82;;;19.60;83.40;;;;;;5071763;28;20040;-80
2021/06/05 06:55:42;;;;;;;15.27;11.07;;;19.50;83.50;;;;;;5073478;28;20032;-80
2021/06/05 06:58:08;;;;;;;15.65;11.30;;;19.60;83.60;;;;;;5071986;28;20388;-80
2021/06/05 07:00:41;;;;;;;14.48;10.52;;;19.50;83.30;;;;;;5072181;28;20066;-80
2021/06/05 07:03:06;;;;;;;16.17;10.93;;;19.50;84.00;;;;;;5073194;28;20020;-80
2021/06/05 07:05:32;;;;;;;14.57;9.82;;;19.50;83.40;;;;;;5072030;28;20491;-80
2021/06/05 07:08:17;;;;;;;13.50;10.88;;;19.50;83.30;;;;;;5072093;28;20028;-82
2021/06/05 07:10:44;;;;;;;13.40;9.55;;;19.50;83.50;;;;;;5071974;28;20074;-80
2021/06/05 07:13:10;;;;;;;12.45;9.60;;;19.60;83.50;;;;;;5072963;28;20032;-80
2021/06/05 07:15:36;;;;;;;10.60;8.30;;;19.60;83.40;;;;;;5072476;28;20029;-80
2021/06/05 07:21:24;;;;;;;12.07;8.90;;;19.70;83.20;;;;;;5076592;28;20510;-80
2021/06/05 07:23:50;;;;;;;15.13;10.88;;;19.70;83.00;;;;;;5076694;28;20028;-80
2021/06/05 07:29:37;;;;;;;11.40;8.43;;;19.70;83.10;;;;;;5078043;28;20028;-81
2021/06/05 07:35:25;;;;;;;11.35;8.68;;;19.80;83.00;;;;;;5015109;28;20445;-82
2021/06/05 07:37:50;;;;;;;9.55;7.85;;;19.80;83.00;;;;;;4998410;28;20034;-81
2021/06/05 07:40:17;;;;;;;11.77;8.32;;;19.90;82.90;;;;;;4998184;28;20453;-82
2021/06/05 07:42:43;;;;;;;9.25;7.75;;;19.90;82.80;;;;;;5014691;28;20105;-81
2021/06/05 07:45:10;;;;;;;10.48;8.00;;;19.90;82.60;;;;;;5014636;28;20605;-82
2021/06/05 07:47:37;;;;;;;9.55;7.57;;;20.00;82.60;;;;;;4998045;28;20030;-81
2021/06/05 07:50:06;;;;;;;9.88;8.10;;;20.10;82.60;;;;;;4998213;28;20149;-81
2021/06/05 07:52:37;;;;;;;9.13;7.25;;;20.20;82.40;;;;;;4998161;28;20125;-82
2021/06/05 07:55:11;;;;;;;10.48;7.95;;;20.30;82.20;;;;;;4995449;28;20049;-81
2021/06/05 08:00:40;;;;;;;10.48;7.75;;;20.20;81.90;;;;;;4994826;28;20490;-81
2021/06/05 08:03:08;;;;;;;9.50;7.70;;;20.10;81.90;;;;;;4978279;28;20085;-81
2021/06/05 08:05:35;;;;;;;8.52;7.60;;;20.00;81.90;;;;;;4978418;28;20077;-81
2021/06/05 08:08:01;;;;;;;10.18;7.90;;;19.90;82.10;;;;;;4978202;28;20035;-81
2021/06/05 08:10:29;;;;;;;11.05;8.25;;;19.90;82.20;;;;;;5032168;28;20037;-81
2021/06/05 08:12:54;;;;;;;8.85;7.20;;;19.80;82.40;;;;;;5037882;28;20033;-82
2021/06/05 08:15:24;;;;;;;9.32;7.45;;;19.80;82.40;;;;;;5038024;28;20140;-81
2021/06/05 08:17:50;;;;;;;9.60;7.78;;;19.70;82.40;;;;;;5037799;28;20025;-81
2021/06/05 08:20:19;;;;;;;9.38;8.02;;;19.70;82.50;;;;;;5037439;28;20495;-81
2021/06/05 08:22:45;;;;;;;9.30;7.28;;;19.70;82.60;;;;;;5037701;28;20025;-82
2021/06/05 08:25:15;;;;;;;9.98;8.18;;;19.70;82.60;;;;;;5037816;28;20048;-81
2021/06/05 08:27:42;;;;;;;9.77;7.47;;;19.60;82.60;;;;;;5037482;28;20507;-81
2021/06/05 08:30:21;;;;;;;9.00;7.70;;;19.70;82.60;;;;;;5037524;28;20116;-81
2021/06/05 08:32:47;;;;;;;7.85;6.93;;;19.70;82.60;;;;;;5055291;28;20496;-81
2021/06/05 08:35:13;;;;;;;8.02;6.95;;;19.70;82.70;;;;;;5037134;28;20040;-82
2021/06/05 08:37:39;;;;;;;8.48;7.22;;;19.60;82.60;;;;;;5037883;28;20468;-81
2021/06/05 08:40:08;;;;;;;6.90;6.20;;;19.70;82.70;;;;;;5055284;28;20522;-82
2021/06/05 08:42:46;;;;;;;9.00;7.50;;;19.60;82.60;;;;;;5037295;28;20051;-82
2021/06/05 08:45:13;;;;;;;7.28;5.68;;;19.60;82.60;;;;;;5037462;28;20543;-82
2021/06/05 08:47:39;;;;;;;8.98;7.10;;;19.60;82.60;;;;;;5037369;28;20028;-82
2021/06/05 08:50:12;;;;;;;8.40;6.97;;;19.60;82.50;;;;;;5037410;28;20510;-81
2021/06/05 08:52:56;;;;;;;8.65;6.45;;;19.60;82.50;;;;;;5034314;28;20041;-81
2021/06/05 08:55:41;;;;;;;8.88;6.97;;;19.60;82.70;;;;;;5073424;28;20538;-80
2021/06/05 08:58:32;;;;;;;8.13;5.88;;;19.60;82.60;;;;;;5073670;28;20042;-78
2021/06/05 09:00:58;;;;;;;6.45;5.45;;;19.60;82.60;;;;;;5073491;28;20025;-78
2021/06/05 09:03:25;;;;;;;6.40;5.70;;;19.80;82.50;;;;;;5073457;28;20036;-78
2021/06/05 09:06:01;;;;;;;5.72;5.07;;;19.90;82.30;;;;;;5073138;28;20483;-78
2021/06/05 09:08:30;;;;;;;6.60;4.95;;;20.10;81.90;;;;;;5074741;28;20032;-79
2021/06/05 09:10:58;;;;;;;5.40;4.90;;;20.30;81.50;;;;;;5073166;28;20082;-78
2021/06/05 09:13:24;;;;;;;5.25;4.75;;;20.60;81.20;;;;;;5074291;28;20032;-78
2021/06/05 09:16:18;;;;;;;7.18;4.72;;;20.70;80.80;;;;;;5072577;28;20036;-79
2021/06/05 09:19:01;;;;;;;5.63;4.78;;;20.80;80.50;;;;;;5074008;28;20033;-78
2021/06/05 09:21:33;;;;;;;5.03;4.53;;;20.80;80.40;;;;;;5073049;28;20032;-78
2021/06/05 09:24:19;;;;;;;5.15;4.65;;;20.80;80.50;;;;;;5073918;28;20044;-79
2021/06/05 09:27:03;;;;;;;4.35;3.95;;;20.60;80.60;;;;;;5074093;28;20032;-79
2021/06/05 09:29:30;;;;;;;6.57;5.05;;;20.50;80.80;;;;;;5073984;28;20041;-79
2021/06/05 09:32:07;;;;;;;5.25;4.72;;;20.40;80.90;;;;;;5072666;28;20047;-79
2021/06/05 09:34:36;;;;;;;4.85;4.40;;;20.30;81.10;;;;;;5072168;28;20032;-79
2021/06/05 09:37:03;;;;;;;5.10;4.50;;;20.30;81.10;;;;;;5072667;28;20024;-78
2021/06/05 09:39:58;;;;;;;4.80;4.13;;;20.30;81.00;;;;;;5073600;28;20055;-76
2021/06/05 09:42:42;;;;;;;4.30;3.90;;;20.30;81.00;;;;;;5050903;28;20123;-77
2021/06/05 09:45:27;;;;;;;;;;;20.20;81.10;;;;;;5073872;28;20024;-78
2021/06/05 09:48:16;;;;;;;5.57;3.70;;;20.20;81.00;;;;;;5072760;28;19908;-77
2021/06/05 09:50:45;;;;;;;4.82;4.28;;;20.10;81.10;;;;;;5071785;28;20041;-78
2021/06/05 09:53:40;;;;;;;5.18;4.50;;;20.10;81.10;;;;;;5071924;28;20043;-78
2021/06/05 09:56:14;;;;;;;4.72;4.32;;;20.30;81.00;;;;;;5056250;28;20373;-77
2021/06/05 09:58:44;;;;;;;4.75;4.35;;;20.40;80.80;;;;;;5073088;28;20025;-77
2021/06/05 10:01:26;;;;;;;4.63;4.22;;;20.60;80.60;;;;;;5071758;28;20020;-77
2021/06/05 10:03:55;;;;;;;6.65;5.43;;;20.80;80.20;;;;;;5071996;28;20020;-77
2021/06/05 10:06:33;;;;;;;4.97;4.53;;;20.90;79.80;;;;;;5071894;28;20070;-77
2021/06/05 10:09:19;;;;;;;5.20;4.70;;;20.90;79.80;;;;;;5073202;28;20048;-77
2021/06/05 10:11:47;;;;;;;5.00;4.55;;;21.00;79.70;;;;;;5071893;28;20433;-77
2021/06/05 10:14:22;;;;;;;4.93;4.53;;;21.00;79.50;;;;;;5071669;28;20033;-77
2021/06/05 10:17:14;;;;;;;5.55;4.93;;;21.00;80.00;;;;;;5071911;28;20044;-78
2021/06/05 10:19:49;;;;;;;4.90;4.50;;;20.90;79.50;;;;;;5073070;28;20047;-76
2021/06/05 10:22:15;;;;;;;4.72;4.22;;;20.80;79.60;;;;;;5071648;28;20197;-72
2021/06/05 10:24:54;;;;;;;4.03;3.70;;;20.80;79.80;;;;;;5071619;28;20551;-76
2021/06/05 10:27:30;;;;;;;4.95;4.50;;;20.70;79.80;;;;;;5072857;28;20120;-73
2021/06/05 10:30:07;;;;;;;4.60;4.20;;;20.70;79.80;;;;;;5071552;28;20024;-73
2021/06/05 10:32:41;;;;;;;4.38;3.97;;;20.60;79.80;;;;;;5072801;28;20056;-73
2021/06/05 10:35:19;;;;;;;5.05;4.40;;;20.60;79.90;;;;;;5072563;28;20032;-73
2021/06/05 10:37:44;;;;;;;5.25;4.72;;;20.60;80.00;;;;;;5072878;28;20386;-72
2021/06/05 10:40:22;;;;;;;4.90;4.50;;;20.50;79.90;;;;;;5072591;28;20112;-73
2021/06/05 10:42:53;;;;;;;5.03;4.53;;;20.60;79.90;;;;;;5071095;28;20033;-74
2021/06/05 10:45:35;;;;;;;4.72;4.32;;;20.80;79.60;;;;;;5072674;28;20067;-73
2021/06/05 10:48:08;;;;;;;4.07;3.67;;;21.00;79.20;;;;;;5072659;28;20051;-73
2021/06/05 10:50:50;;;;;;;4.72;4.28;;;21.10;78.90;;;;;;5071093;28;20484;-73
2021/06/05 10:53:38;;;;;;;5.18;4.68;;;21.10;78.70;;;;;;5071197;28;20045;-73
2021/06/05 10:56:19;;;;;;;4.45;4.07;;;21.00;78.50;;;;;;5073755;28;20028;-73
2021/06/05 10:58:51;;;;;;;4.93;4.53;;;20.90;78.70;;;;;;5076503;28;20028;-72
2021/06/05 11:01:40;;;;;;;4.78;4.38;;;20.80;78.90;;;;;;5076387;28;20077;-73
2021/06/05 11:04:26;;;;;;;4.53;4.10;;;20.70;79.10;;;;;;5059803;28;20421;-73
2021/06/05 11:06:52;;;;;;;4.60;4.20;;;20.60;79.30;;;;;;5076230;28;20029;-73
2021/06/05 11:09:29;;;;;;;5.40;4.90;;;20.50;79.20;;;;;;5074988;28;20032;-73
2021/06/05 11:11:59;;;;;;;4.85;4.45;;;20.50;79.40;;;;;;5076165;28;20033;-73
2021/06/05 11:14:36;;;;;;;5.70;5.10;;;20.40;79.40;;;;;;5076109;28;20023;-76
2021/06/05 11:17:23;;;;;;;7.05;5.30;;;20.30;79.50;;;;;;5076248;28;20028;-77
2021/06/05 11:19:52;;;;;;;6.00;5.40;;;20.30;79.70;;;;;;5074694;28;20162;-76
2021/06/05 11:22:22;;;;;;;5.40;4.90;;;20.30;79.60;;;;;;5076000;28;20119;-74
2021/06/05 11:25:06;;;;;;;5.18;4.68;;;20.30;79.60;;;;;;5074730;28;20510;-76
2021/06/05 11:27:37;;;;;;;5.55;4.72;;;20.40;79.50;;;;;;5075953;28;20028;-75
2021/06/05 11:30:08;;;;;;;5.75;4.70;;;20.50;79.20;;;;;;5076058;28;20033;-73
2021/06/05 11:32:54;;;;;;;4.85;4.45;;;20.60;79.30;;;;;;5074889;28;20044;-75
2021/06/05 11:35:45;;;;;;;4.93;4.50;;;20.70;79.00;;;;;;5074491;28;20029;-75
2021/06/05 11:38:37;;;;;;;5.13;4.72;;;20.80;78.80;;;;;;5075690;28;20044;-74
2021/06/05 11:41:04;;;;;;;5.32;4.82;;;20.90;78.50;;;;;;5073046;28;20472;-74
2021/06/05 11:43:30;;;;;;;8.00;5.05;;;21.00;78.40;;;;;;5074405;28;20136;-75
2021/06/05 11:46:17;;;;;;;6.03;5.32;;;21.00;78.40;;;;;;5074466;28;20559;-74
2021/06/05 11:48:48;;;;;;;7.43;5.90;;;21.00;78.10;;;;;;5075243;28;20039;-73
2021/06/05 11:51:20;;;;;;;6.15;5.43;;;21.00;77.80;;;;;;5073949;28;20033;-73
2021/06/05 11:53:58;;;;;;;6.05;5.50;;;20.90;77.90;;;;;;5073905;28;20048;-73
2021/06/05 11:56:25;;;;;;;6.07;5.47;;;20.80;77.90;;;;;;5075416;28;20032;-73
2021/06/05 11:58:51;;;;;;;5.85;5.35;;;20.80;78.00;;;;;;5075338;28;20025;-73
2021/06/05 12:01:25;;;;;;;5.55;5.05;;;20.80;78.10;;;;;;5074073;28;20065;-74
2021/06/05 12:04:01;;;;;;;5.32;4.82;;;20.70;78.10;;;;;;5073889;28;20169;-74
2021/06/05 12:06:27;;;;;;;5.95;5.40;;;20.70;78.20;;;;;;5073503;28;20049;-74
2021/06/05 12:09:40;;;;;;;5.82;4.97;;;20.80;78.20;;;;;;5074158;28;20518;-75
2021/06/05 12:12:09;;;;;;;6.13;5.15;;;20.70;78.10;;;;;;4993636;28;20038;-74
2021/06/05 12:14:46;;;;;;;5.63;5.13;;;20.70;78.20;;;;;;4976942;28;20378;-75
2021/06/05 12:17:31;;;;;;;5.75;5.15;;;20.70;78.20;;;;;;4993400;28;20061;-75
2021/06/05 12:20:24;;;;;;;4.97;4.57;;;20.80;78.20;;;;;;4993279;28;20042;-74
2021/06/05 12:22:54;;;;;;;4.97;4.57;;;20.80;78.00;;;;;;4993282;28;20117;-75
2021/06/05 12:25:32;;;;;;;4.75;4.35;;;20.90;77.90;;;;;;4993068;28;20037;-73
2021/06/05 12:28:22;;;;;;;4.93;4.53;;;21.00;77.90;;;;;;4976968;28;20030;-75
2021/06/05 12:30:49;;;;;;;5.18;4.72;;;21.10;77.80;;;;;;4993360;28;20509;-74
2021/06/05 12:33:28;;;;;;;5.65;5.15;;;21.10;77.60;;;;;;4993378;28;20038;-73
2021/06/05 12:35:54;;;;;;;6.00;4.63;;;21.20;77.40;;;;;;4993326;28;20038;-73
2021/06/05 12:38:38;;;;;;;5.32;4.82;;;21.10;77.30;;;;;;4976835;28;20616;-73
2021/06/05 12:41:08;;;;;;;5.57;5.07;;;21.10;77.30;;;;;;4976703;28;20030;-73
2021/06/05 12:43:36;;;;;;;5.47;4.97;;;21.10;77.30;;;;;;4993022;28;20030;-73
2021/06/05 12:46:06;;;;;;;5.63;5.13;;;21.00;77.30;;;;;;5031557;28;20041;-73
2021/06/05 12:48:33;;;;;;;6.20;5.60;;;21.00;77.50;;;;;;5072986;28;20082;-72
2021/06/05 12:50:59;;;;;;;6.40;5.80;;;20.90;77.40;;;;;;5072964;28;20029;-73
2021/06/05 12:53:29;;;;;;;6.38;5.70;;;20.80;77.30;;;;;;5074153;28;20123;-73
2021/06/05 12:55:59;;;;;;;6.20;5.70;;;20.80;77.50;;;;;;5074071;28;20025;-73
2021/06/05 12:58:37;;;;;;;6.38;5.78;;;20.80;77.50;;;;;;5056163;28;20048;-73
2021/06/05 13:01:25;;;;;;;5.55;5.05;;;20.90;77.30;;;;;;5074426;28;20103;-74
2021/06/05 13:03:50;;;;;;;5.70;5.20;;;21.00;77.10;;;;;;5056117;28;20020;-73
2021/06/05 13:06:18;;;;;;;4.68;4.22;;;21.20;76.80;;;;;;5074008;28;20533;-73
2021/06/05 13:08:46;;;;;;;5.88;5.38;;;21.40;76.50;;;;;;5074103;28;20032;-73
2021/06/05 13:11:13;;;;;;;5.40;4.93;;;21.60;76.10;;;;;;5074169;28;20028;-75
2021/06/05 13:13:58;;;;;;;6.60;6.00;;;21.60;75.70;;;;;;5055916;28;20032;-76
2021/06/05 13:16:25;;;;;;;7.07;6.38;;;21.60;75.70;;;;;;5073700;28;20475;-75
2021/06/05 13:18:53;;;;;;;6.70;6.10;;;21.40;75.60;;;;;;5055436;28;20028;-75